Time;durP1;ratioP1;P1;durP2;ratioP2;P2;SDS_P1;SDS_P2;PMS_P1;PMS_P2;Temp;Humidity;BMP_temperature;BMP_pressure;BME280_temperature;BME280_humidity;BME280_pressure;Samples;Min_cycle;Max_cycle;Signal;HPM_P1;HPM_P2
2022/11/29 00:00:57;;;;;;;8.32;4.35;;;;;;;3.50;100.00;97268.09;4968311;28;20494;-58
2022/11/29 00:03:24;;;;;;;7.25;4.20;;;;;;;3.57;100.00;97273.91;4968135;28;20113;-56
2022/11/29 00:05:52;;;;;;;5.65;2.60;;;;;;;3.69;100.00;97276.00;4967732;28;20055;-56
2022/11/29 00:08:20;;;;;;;7.90;3.42;;;;;;;3.65;100.00;97267.63;4966726;28;20141;-58
2022/11/29 00:10:47;;;;;;;3.67;1.77;;;;;;;3.56;100.00;97266.81;4967148;28;20101;-57
2022/11/29 00:13:16;;;;;;;6.60;3.65;;;;;;;3.57;100.00;97262.97;4968514;28;20062;-58
2022/11/29 00:15:42;;;;;;;10.07;4.47;;;;;;;3.61;100.00;97263.91;4968119;28;20117;-56
2022/11/29 00:18:09;;;;;;;4.97;1.95;;;;;;;3.33;100.00;97231.66;4968463;28;20050;-56
2022/11/29 00:20:38;;;;;;;6.07;2.28;;;;;;;3.55;100.00;97243.28;4966827;28;20086;-56
2022/11/29 00:23:05;;;;;;;10.10;2.70;;;;;;;3.67;100.00;97262.63;4968089;28;20137;-57
2022/11/29 00:25:31;;;;;;;6.30;2.80;;;;;;;3.72;100.00;97281.66;4968309;28;20178;-56
2022/11/29 00:27:58;;;;;;;7.35;2.85;;;;;;;3.65;100.00;97264.88;4966547;28;20501;-57
2022/11/29 00:30:24;;;;;;;7.18;3.00;;;;;;;3.68;100.00;97264.25;4982833;28;20059;-56
2022/11/29 00:32:51;;;;;;;10.60;3.78;;;;;;;3.01;100.00;97175.41;4967974;28;20054;-57
2022/11/29 00:35:18;;;;;;;7.28;3.20;;;;;;;3.68;100.00;97264.25;4968053;28;20058;-58
2022/11/29 00:37:44;;;;;;;15.48;3.80;;;;;;;3.61;100.00;97255.69;4982182;28;20051;-56
2022/11/29 00:40:11;;;;;;;14.75;4.32;;;;;;;3.66;100.00;97255.56;4967493;28;20459;-57
2022/11/29 00:42:38;;;;;;;9.80;3.97;;;;;;;3.69;100.00;97243.94;4967953;28;20426;-56
2022/11/29 00:45:05;;;;;;;5.75;2.00;;;;;;;3.57;100.00;97229.28;4967451;28;20559;-57
2022/11/29 00:47:31;;;;;;;10.15;3.08;;;;;;;3.66;100.00;97254.72;4967546;28;20149;-56
2022/11/29 00:49:58;;;;;;;7.28;2.40;;;;;;;3.71;100.00;97252.66;4982539;28;20054;-56
2022/11/29 00:52:24;;;;;;;3.50;1.42;;;;;;;3.47;100.00;97213.97;4982243;28;20489;-58
2022/11/29 00:54:51;;;;;;;1.95;1.23;;;;;;;3.70;100.00;97252.97;4966612;28;20058;-57
2022/11/29 00:57:18;;;;;;;1.92;1.40;;;;;;;3.76;100.00;97248.94;4967587;28;20114;-56
2022/11/29 00:59:45;;;;;;;1.15;1.00;;;;;;;3.31;100.00;97188.19;4967587;28;20405;-57
2022/11/29 01:02:12;;;;;;;1.23;0.80;;;;;;;3.79;100.00;97251.88;4967147;28;20588;-57
2022/11/29 01:04:39;;;;;;;6.45;2.55;;;;;;;3.76;100.00;97255.22;4967769;28;20050;-57
2022/11/29 01:07:05;;;;;;;8.52;4.22;;;;;;;3.69;100.00;97254.91;4967019;28;20101;-57
2022/11/29 01:09:32;;;;;;;9.80;4.50;;;;;;;3.22;100.00;97168.22;4967809;28;20089;-56
2022/11/29 01:11:59;;;;;;;6.15;3.20;;;;;;;3.73;100.00;97250.38;4967016;28;20488;-56
2022/11/29 01:14:25;;;;;;;7.40;3.22;;;;;;;3.81;100.00;97230.41;4967290;28;20054;-56
2022/11/29 01:16:52;;;;;;;6.70;3.72;;;;;;;3.85;100.00;97238.78;4967129;28;20486;-57
2022/11/29 01:19:18;;;;;;;8.05;3.20;;;;;;;3.70;100.00;97218.16;4966726;28;20153;-56
2022/11/29 01:21:45;;;;;;;6.25;3.42;;;;;;;3.35;100.00;97191.88;4967087;28;20149;-56
2022/11/29 01:24:12;;;;;;;3.83;2.50;;;;;;;3.80;100.00;97233.47;4965194;28;20604;-55
2022/11/29 01:26:38;;;;;;;4.55;3.15;;;;;;;3.81;100.00;97233.16;4966649;28;20134;-57
2022/11/29 01:29:05;;;;;;;5.22;3.10;;;;;;;3.83;100.00;97239.13;4967154;28;20105;-56
2022/11/29 01:31:36;;;;;;;7.60;4.13;;;;;;;3.70;100.00;97229.13;4967023;28;20498;-56
2022/11/29 01:34:05;;;;;;;5.75;3.30;;;;;;;3.91;100.00;97241.06;4967400;28;20141;-56
2022/11/29 01:36:32;;;;;;;8.63;4.00;;;;;;;3.88;100.00;97230.75;4967234;28;20125;-56
2022/11/29 01:39:00;;;;;;;6.18;2.72;;;;;;;3.94;100.00;97234.94;4966279;28;20067;-56
2022/11/29 01:41:30;;;;;;;6.97;3.13;;;;;;;4.03;100.00;97232.19;4966383;28;20109;-57
2022/11/29 01:44:04;;;;;;;6.50;3.25;;;;;;;4.09;100.00;97231.72;4966779;28;20059;-58
2022/11/29 01:46:34;;;;;;;4.57;1.98;;;;;;;4.12;100.00;97233.78;4966629;28;20090;-57
2022/11/29 01:49:14;;;;;;;6.57;2.65;;;;;;;4.06;100.00;97215.88;4966431;28;20057;-56
2022/11/29 01:51:46;;;;;;;3.65;1.77;;;;;;;4.06;100.00;97232.31;4966109;28;20113;-57
2022/11/29 01:54:13;;;;;;;4.78;1.60;;;;;;;4.03;100.00;97227.50;4966188;28;20069;-56
2022/11/29 01:56:41;;;;;;;2.55;1.20;;;;;;;3.97;100.00;97228.78;4966466;28;20055;-57
2022/11/29 01:59:11;;;;;;;2.53;1.00;;;;;;;3.40;100.00;97153.41;4966145;28;20105;-57
2022/11/29 02:01:38;;;;;;;12.60;4.88;;;;;;;3.78;100.00;97225.56;4966026;28;20117;-56
2022/11/29 02:04:05;;;;;;;6.03;2.92;;;;;;;3.80;100.00;97239.75;4971440;28;20613;-57
2022/11/29 02:06:33;;;;;;;4.30;2.35;;;;;;;3.85;100.00;97225.09;4630262;28;10000510;-58
2022/11/29 02:09:00;;;;;;;3.45;1.60;;;;;;;3.83;100.00;97222.69;4985863;28;20088;-57
2022/11/29 02:11:53;;;;;;;4.22;1.33;;;;;;;3.23;100.00;97126.03;4985435;28;20100;-57
2022/11/29 02:14:55;;;;;;;1.30;0.88;;;;;;;3.84;100.00;97228.97;4985801;28;20587;-56
2022/11/29 02:18:01;;;;;;;2.15;1.10;;;;;;;3.98;100.00;97219.44;4985146;28;20093;-57
2022/11/29 02:20:58;;;;;;;5.85;2.30;;;;;;;3.77;100.00;97218.50;4984829;28;20155;-58
2022/11/29 02:23:47;;;;;;;3.20;1.50;;;;;;;3.82;100.00;97223.00;4985325;28;20484;-56
2022/11/29 02:26:33;;;;;;;2.08;1.35;;;;;;;3.86;100.00;97224.78;4984192;28;20529;-55
2022/11/29 02:29:23;;;;;;;3.38;1.50;;;;;;;3.96;100.00;97226.38;4985431;28;20046;-56
2022/11/29 02:32:08;;;;;;;2.85;1.40;;;;;;;3.85;100.00;97225.91;4985050;28;20085;-55
2022/11/29 02:34:49;;;;;;;2.05;1.00;;;;;;;3.82;100.00;97226.56;4985633;28;20428;-56
2022/11/29 02:37:36;;;;;;;3.97;1.38;;;;;;;3.71;100.00;97225.28;4985489;28;20133;-57
2022/11/29 02:40:06;;;;;;;1.83;0.80;;;;;;;3.75;100.00;97223.47;4985412;28;20161;-57
2022/11/29 02:43:00;;;;;;;1.42;0.95;;;;;;;3.74;100.00;97224.63;4984915;28;20533;-59
2022/11/29 02:45:40;;;;;;;2.70;1.02;;;;;;;3.60;100.00;97226.72;4984272;28;20056;-57
2022/11/29 02:48:09;;;;;;;2.55;1.40;;;;;;;3.58;100.00;97223.47;4983895;28;20129;-56
2022/11/29 02:50:42;;;;;;;2.45;1.20;;;;;;;3.60;100.00;97229.44;4966053;28;20537;-57
2022/11/29 02:53:34;;;;;;;2.47;1.20;;;;;;;3.56;100.00;97223.00;4965476;28;20137;-57
2022/11/29 02:56:13;;;;;;;1.88;1.02;;;;;;;3.50;100.00;97229.75;4965560;28;20063;-56
2022/11/29 02:59:33;;;;;;;1.50;0.80;;;;;;;3.46;100.00;97228.78;4981521;28;20050;-57
2022/11/29 03:02:16;;;;;;;1.77;0.90;;;;;;;3.44;100.00;97233.78;4946905;28;20146;-55
2022/11/29 03:05:00;;;;;;;0.82;0.70;;;;;;;3.39;100.00;97233.94;4962679;28;20058;-56
2022/11/29 03:07:56;;;;;;;;;;;;;;;3.45;100.00;97221.69;4978212;28;20517;-58
2022/11/29 03:10:28;;;;;;;2.38;0.95;;;;;;;2.79;100.00;97138.03;4982970;28;19930;-55
2022/11/29 03:12:57;;;;;;;2.25;1.30;;;;;;;3.33;100.00;97223.44;4984971;28;20058;-56
2022/11/29 03:15:32;;;;;;;1.30;0.80;;;;;;;3.22;100.00;97224.88;4984543;28;20931;-57
2022/11/29 03:18:17;;;;;;;2.50;1.10;;;;;;;3.25;100.00;97222.31;4984840;28;20129;-57
2022/11/29 03:21:17;;;;;;;1.10;0.85;;;;;;;3.26;100.00;97223.91;4963720;28;20210;-58
2022/11/29 03:24:04;;;;;;;4.45;0.88;;;;;;;2.68;100.00;97158.59;4965410;28;20129;-56
2022/11/29 03:26:54;;;;;;;1.35;0.70;;;;;;;3.11;100.00;97225.16;4965129;28;20501;-57
2022/11/29 03:29:39;;;;;;;1.80;0.98;;;;;;;3.20;100.00;97216.97;4965512;28;20050;-57
2022/11/29 03:32:21;;;;;;;1.33;0.80;;;;;;;3.30;100.00;97224.91;4964972;28;20137;-56
2022/11/29 03:35:12;;;;;;;1.73;0.88;;;;;;;3.33;100.00;97218.78;4964975;28;20051;-56
2022/11/29 03:37:58;;;;;;;1.80;0.90;;;;;;;3.33;100.00;97229.72;4984664;28;20129;-56
2022/11/29 03:40:32;;;;;;;1.40;1.00;;;;;;;2.99;100.00;97159.31;4983597;28;20113;-56
2022/11/29 03:43:27;;;;;;;1.10;0.88;;;;;;;3.01;100.00;97178.13;4984814;28;20137;-56
2022/11/29 03:46:00;;;;;;;1.50;0.90;;;;;;;3.24;100.00;97291.84;4964426;28;20150;-57
2022/11/29 03:48:36;;;;;;;3.53;1.10;;;;;;;3.31;100.00;97229.25;4965394;28;20055;-57
2022/11/29 03:51:12;;;;;;;2.78;1.10;;;;;;;3.28;100.00;97232.63;4964927;28;20090;-57
2022/11/29 03:54:00;;;;;;;1.50;0.82;;;;;;;2.74;100.00;97151.84;4964966;28;20055;-56
2022/11/29 03:56:31;;;;;;;2.95;1.20;;;;;;;3.34;100.00;97234.06;4966446;28;20055;-56
2022/11/29 03:59:16;;;;;;;12.50;4.40;;;;;;;3.41;100.00;97242.63;4968800;28;20141;-57
2022/11/29 04:01:42;;;;;;;1.98;1.17;;;;;;;3.34;100.00;97236.81;4984445;28;20136;-57
2022/11/29 04:04:47;;;;;;;2.88;1.38;;;;;;;3.49;100.00;97250.06;4987970;28;20060;-56
2022/11/29 04:07:26;;;;;;;;;;;;;;;3.44;100.00;97247.47;4988097;28;20085;-57
2022/11/29 04:10:15;;;;;;;2.80;1.23;;;;;;;3.21;100.00;97221.31;4969710;28;20409;-57
2022/11/29 04:12:57;;;;;;;1.80;0.95;;;;;;;3.50;100.00;97251.66;4968255;28;20072;-56
2022/11/29 04:15:42;;;;;;;3.45;2.17;;;;;;;3.53;100.00;97251.00;4968046;28;20149;-57
2022/11/29 04:18:20;;;;;;;3.00;1.23;;;;;;;3.51;100.00;97250.53;4980885;28;20144;-58
2022/11/29 04:21:11;;;;;;;3.72;1.92;;;;;;;3.55;100.00;97240.56;4987254;28;20145;-58
2022/11/29 04:23:58;;;;;;;3.72;2.00;;;;;;;3.67;100.00;97246.19;4986064;28;20058;-56
2022/11/29 04:26:53;;;;;;;1.85;1.10;;;;;;;3.68;100.00;97252.50;4985883;28;20141;-57
2022/11/29 04:29:36;;;;;;;2.53;1.20;;;;;;;3.68;100.00;97250.56;4972352;28;20581;-56
2022/11/29 04:32:30;;;;;;;2.38;1.77;;;;;;;3.77;100.00;97262.31;4967936;28;20058;-56
2022/11/29 04:35:02;;;;;;;;;;;;;;;3.80;100.00;97267.16;4968588;28;20113;-57
2022/11/29 04:37:48;;;;;;;1.48;1.17;;;;;;;3.70;100.00;97267.47;4966356;28;20305;-56
2022/11/29 04:40:45;;;;;;;2.00;1.67;;;;;;;3.78;100.00;97263.94;4967710;28;20138;-58
2022/11/29 04:43:42;;;;;;;4.05;2.17;;;;;;;3.80;100.00;97255.38;4967924;28;20058;-56
2022/11/29 04:46:35;;;;;;;4.55;2.58;;;;;;;3.71;100.00;97257.31;4967673;28;20066;-56
2022/11/29 04:49:24;;;;;;;3.30;2.00;;;;;;;3.69;100.00;97265.88;4966057;28;20426;-56
2022/11/29 04:52:05;;;;;;;5.30;2.97;;;;;;;3.72;100.00;97265.22;4967602;28;20114;-56
2022/11/29 04:54:58;;;;;;;2.80;2.17;;;;;;;3.71;100.00;97262.81;4967881;28;20054;-57
2022/11/29 04:57:48;;;;;;;2.73;1.87;;;;;;;3.69;100.00;97260.38;4980009;28;20129;-58
2022/11/29 05:00:18;;;;;;;3.67;1.80;;;;;;;3.73;100.00;97266.81;4985785;28;20050;-57
2022/11/29 05:03:19;;;;;;;3.47;1.70;;;;;;;3.71;100.00;97271.84;4986354;28;20185;-56
2022/11/29 05:06:01;;;;;;;1.88;1.10;;;;;;;3.62;100.00;97265.53;4986599;28;20087;-58
2022/11/29 05:08:34;;;;;;;1.17;0.90;;;;;;;3.52;100.00;97260.38;4984408;28;20082;-57
2022/11/29 05:11:00;;;;;;;1.13;0.90;;;;;;;3.70;100.00;97266.69;4985563;28;20341;-56
2022/11/29 05:13:45;;;;;;;1.48;1.17;;;;;;;3.75;100.00;97267.31;4986390;28;20133;-57
2022/11/29 05:16:43;;;;;;;1.48;1.02;;;;;;;3.73;100.00;97264.06;4985540;28;20145;-59
2022/11/29 05:19:42;;;;;;;2.20;1.30;;;;;;;3.76;100.00;97265.38;4986779;28;20991;-56
2022/11/29 05:22:34;;;;;;;2.60;1.63;;;;;;;3.75;100.00;97270.06;4985979;28;20141;-57
2022/11/29 05:25:13;;;;;;;3.85;2.00;;;;;;;3.76;100.00;97266.19;4986287;28;20054;-56
2022/11/29 05:28:15;;;;;;;2.95;2.13;;;;;;;3.79;100.00;97273.78;4975775;28;20129;-57
2022/11/29 05:31:00;;;;;;;3.28;1.77;;;;;;;3.76;100.00;97277.13;4984856;28;20124;-58
2022/11/29 05:34:05;;;;;;;3.30;1.80;;;;;;;3.21;100.00;97209.59;4984611;28;20054;-57
2022/11/29 05:36:56;;;;;;;2.08;1.17;;;;;;;3.12;100.00;97201.34;4985400;28;20134;-57
2022/11/29 05:39:36;;;;;;;2.42;1.33;;;;;;;3.71;100.00;97271.84;4984486;28;20053;-56
2022/11/29 05:42:21;;;;;;;4.95;1.65;;;;;;;3.76;100.00;97274.38;4985847;28;20062;-56
2022/11/29 05:45:15;;;;;;;3.22;2.20;;;;;;;3.78;100.00;97280.38;4986010;28;20140;-58
2022/11/29 05:47:51;;;;;;;5.00;2.70;;;;;;;3.83;100.00;97282.94;4968774;28;20058;-57
2022/11/29 05:50:25;;;;;;;3.28;2.05;;;;;;;3.37;100.00;97219.75;4966288;28;20093;-57
2022/11/29 05:53:00;;;;;;;7.78;2.47;;;;;;;3.84;100.00;97276.34;4967795;28;20502;-58
2022/11/29 05:55:46;;;;;;;5.68;3.03;;;;;;;3.91;100.00;97284.06;4985357;28;20085;-56
2022/11/29 05:58:37;;;;;;;8.55;3.80;;;;;;;4.01;100.00;97279.09;4985556;28;20514;-57
2022/11/29 06:01:23;;;;;;;9.18;4.13;;;;;;;3.52;100.00;97216.56;4985185;28;20104;-57
2022/11/29 06:04:16;;;;;;;9.07;4.22;;;;;;;4.10;100.00;97282.66;4964604;28;20510;-57
2022/11/29 06:07:13;;;;;;;5.77;3.73;;;;;;;4.11;100.00;97277.97;4966771;28;20054;-57
2022/11/29 06:09:49;;;;;;;6.78;3.90;;;;;;;4.18;100.00;97278.28;4964452;28;20796;-57
2022/11/29 06:12:20;;;;;;;5.32;3.13;;;;;;;4.23;100.00;97281.69;4964515;28;20502;-56
2022/11/29 06:15:02;;;;;;;9.20;6.10;;;;;;;4.34;100.00;97277.47;4969738;28;20432;-57
2022/11/29 06:17:28;;;;;;;8.20;4.78;;;;;;;4.32;100.00;97274.25;4984550;28;20066;-58
2022/11/29 06:20:23;;;;;;;7.25;4.50;;;;;;;4.31;100.00;97283.63;4984315;28;20054;-58
2022/11/29 06:22:53;;;;;;;10.35;6.63;;;;;;;4.38;100.00;97283.91;4985256;28;20145;-56
2022/11/29 06:25:29;;;;;;;12.60;6.78;;;;;;;4.52;100.00;97284.53;4984621;28;20046;-59
2022/11/29 06:28:27;;;;;;;10.20;4.80;;;;;;;4.48;100.00;97289.06;4971230;28;20058;-57
2022/11/29 06:30:59;;;;;;;7.20;3.80;;;;;;;4.00;100.00;97199.97;4966129;28;20518;-57
2022/11/29 06:33:42;;;;;;;6.18;3.53;;;;;;;4.50;100.00;97277.78;4965447;28;20109;-58
2022/11/29 06:36:38;;;;;;;4.93;3.15;;;;;;;4.55;100.00;97272.91;4965715;28;20054;-58
2022/11/29 06:39:05;;;;;;;10.52;5.93;;;;;;;4.53;100.00;97275.19;4972654;28;20065;-57
2022/11/29 06:41:32;;;;;;;17.63;9.05;;;;;;;1.98;100.00;96842.88;4985164;28;20070;-56
2022/11/29 06:43:59;;;;;;;13.45;7.65;;;;;;;4.33;100.00;97231.97;4985221;28;20133;-57
2022/11/29 06:46:35;;;;;;;25.02;13.20;;;;;;;4.61;100.00;97277.09;4984715;28;20572;-57
2022/11/29 06:49:10;;;;;;;22.83;13.55;;;;;;;4.44;100.00;97219.53;4984741;28;20058;-58
2022/11/29 06:51:48;;;;;;;17.88;10.57;;;;;;;4.78;100.00;97258.97;4985224;28;20054;-56
2022/11/29 06:54:24;;;;;;;16.45;9.68;;;;;;;4.77;100.00;97266.41;4983413;28;20528;-58
2022/11/29 06:57:02;;;;;;;19.15;10.70;;;;;;;4.81;100.00;97263.78;4984965;28;20508;-58
2022/11/29 06:59:58;;;;;;;15.45;7.90;;;;;;;4.79;100.00;97266.09;4985269;28;20141;-58
2022/11/29 07:02:37;;;;;;;11.50;4.93;;;;;;;4.78;100.00;97259.78;4984589;28;20169;-59
2022/11/29 07:05:22;;;;;;;14.00;5.53;;;;;;;4.77;100.00;97263.66;4984893;28;20480;-57
2022/11/29 07:07:52;;;;;;;12.90;6.68;;;;;;;4.85;100.00;97264.75;4985693;28;20481;-57
2022/11/29 07:10:20;;;;;;;13.25;8.27;;;;;;;4.25;100.00;97161.50;4985321;28;20050;-57
2022/11/29 07:12:48;;;;;;;15.40;9.18;;;;;;;4.81;100.00;97261.03;4979992;28;20173;-65
2022/11/29 07:15:20;;;;;;;15.43;8.95;;;;;;;4.96;100.00;97263.28;4982634;28;20129;-60
2022/11/29 07:18:06;;;;;;;9.60;6.05;;;;;;;4.87;100.00;97257.81;4982827;28;20047;-60
2022/11/29 07:20:57;;;;;;;8.82;3.92;;;;;;;4.79;100.00;97266.09;4965806;28;20150;-61
2022/11/29 07:23:35;;;;;;;9.50;6.03;;;;;;;4.66;100.00;97254.97;4972959;28;20050;-59
2022/11/29 07:26:18;;;;;;;17.90;9.90;;;;;;;4.87;100.00;97273.47;4983046;28;20050;-59
2022/11/29 07:29:21;;;;;;;13.68;8.73;;;;;;;5.00;100.00;97267.78;4962479;28;20054;-56
2022/11/29 07:32:05;;;;;;;17.80;10.43;;;;;;;4.96;100.00;97269.56;4978211;28;20539;-59
2022/11/29 07:34:34;;;;;;;12.95;5.22;;;;;;;5.07;100.00;97264.53;4987638;28;20133;-63
2022/11/29 07:37:19;;;;;;;8.27;3.75;;;;;;;5.08;100.00;97263.38;4985596;28;20050;-57
2022/11/29 07:39:45;;;;;;;4.13;3.13;;;;;;;5.13;100.00;97265.94;4987730;28;20054;-61
2022/11/29 07:42:27;;;;;;;7.30;2.75;;;;;;;5.17;100.00;97266.91;4987771;28;20062;-61
2022/11/29 07:45:15;;;;;;;8.13;3.38;;;;;;;5.02;100.00;97226.25;4986641;28;20559;-60
2022/11/29 07:47:41;;;;;;;7.22;3.22;;;;;;;5.26;100.00;97270.41;4986935;28;20070;-54
2022/11/29 07:50:08;;;;;;;6.68;3.20;;;;;;;5.33;100.00;97276.16;4987856;28;20058;-60
2022/11/29 07:52:35;;;;;;;10.43;3.90;;;;;;;4.90;100.00;97187.75;4987533;28;20104;-62
2022/11/29 07:55:03;;;;;;;9.23;4.18;;;;;;;5.46;100.00;97269.66;4987301;28;20084;-57
2022/11/29 07:57:30;;;;;;;8.52;4.15;;;;;;;5.55;100.00;97273.97;4987407;28;20144;-57
2022/11/29 07:59:56;;;;;;;12.77;6.25;;;;;;;5.53;100.00;97269.94;4988007;28;20054;-60
2022/11/29 08:02:28;;;;;;;10.35;5.20;;;;;;;5.61;100.00;97274.59;4985603;28;20474;-59
2022/11/29 08:04:54;;;;;;;11.52;7.10;;;;;;;5.71;100.00;97277.75;5001735;28;20125;-61
2022/11/29 08:07:21;;;;;;;19.50;10.93;;;;;;;5.46;100.00;97236.69;4986126;28;20125;-61
2022/11/29 08:09:48;;;;;;;19.58;11.00;;;;;;;5.81;100.00;97276.53;4992064;28;20531;-61
2022/11/29 08:12:14;;;;;;;19.25;11.73;;;;;;;5.50;100.00;97221.16;4986673;28;20133;-58
2022/11/29 08:14:41;;;;;;;18.02;12.18;;;;;;;6.01;100.00;97275.78;4992971;28;20050;-57
2022/11/29 08:17:09;;;;;;;25.27;14.27;;;;;;;5.93;100.00;97246.41;4986864;28;20058;-63
2022/11/29 08:19:35;;;;;;;25.35;14.57;;;;;;;5.68;100.00;97211.66;4986816;28;20129;-60
2022/11/29 08:22:02;;;;;;;19.35;13.05;;;;;;;6.12;100.00;97288.78;4986262;28;20411;-63
2022/11/29 08:24:29;;;;;;;19.17;10.20;;;;;;;6.07;100.00;97290.94;4986542;28;20564;-57
2022/11/29 08:26:56;;;;;;;15.77;9.77;;;;;;;6.05;100.00;97293.22;4985521;28;20137;-58
2022/11/29 08:29:22;;;;;;;13.18;7.35;;;;;;;6.15;100.00;97287.31;4986985;28;20104;-58
2022/11/29 08:31:52;;;;;;;37.47;22.17;;;;;;;6.01;100.00;97292.25;4985960;28;20042;-63
2022/11/29 08:34:20;;;;;;;25.58;14.68;;;;;;;5.32;100.00;97175.72;4986407;28;20572;-61
2022/11/29 08:36:47;;;;;;;12.38;6.55;;;;;;;5.75;100.00;97228.41;4986123;28;20097;-60
2022/11/29 08:39:13;;;;;;;12.90;6.90;;;;;;;5.62;100.00;97180.00;4986962;28;20508;-59
2022/11/29 08:41:41;;;;;;;14.45;7.18;;;;;;;5.62;100.00;97240.47;4984810;28;20096;-60
2022/11/29 08:44:07;;;;;;;9.55;5.80;;;;;;;5.78;100.00;97183.78;4984406;28;20054;-66
2022/11/29 08:49:19;;;;;;;19.15;10.60;;;;;;;6.01;100.00;97191.34;4986559;28;20082;-56
2022/11/29 08:51:46;;;;;;;21.70;13.90;;;;;;;6.59;100.00;97270.06;4985385;28;20132;-71
2022/11/29 08:54:12;;;;;;;26.65;14.20;;;;;;;6.71;100.00;97283.88;4986614;28;20093;-65
2022/11/29 08:56:39;;;;;;;27.02;17.00;;;;;;;6.81;100.00;97280.69;4985258;28;20137;-56
2022/11/29 08:59:26;;;;;;;23.80;12.77;;;;;;;6.47;100.00;97234.28;4986211;28;20161;-63
2022/11/29 09:01:52;;;;;;;19.30;12.32;;;;;;;6.37;100.00;97218.19;4986598;28;20097;-58
2022/11/29 09:04:19;;;;;;;23.63;13.85;;;;;;;6.55;100.00;97269.16;4976152;28;20142;-60
2022/11/29 09:06:48;;;;;;;21.23;11.85;;;;;;;6.75;100.00;97262.00;4996755;28;20058;-61
2022/11/29 09:09:15;;;;;;;18.75;11.50;;;;;;;6.61;100.00;97231.22;4983999;28;20050;-62
2022/11/29 09:11:43;;;;;;;21.67;12.15;;;;;;;6.82;100.00;97257.53;4984099;28;20050;-58
2022/11/29 09:14:16;;;;;;;18.07;10.03;;;;;;;6.87;100.00;97251.81;4972574;28;20050;-59
2022/11/29 09:16:42;;;;;;;13.93;8.43;;;;;;;6.84;100.00;97243.44;4984624;28;20532;-57
2022/11/29 09:19:12;;;;;;;12.57;6.68;;;;;;;6.36;100.00;97139.56;4967882;28;20090;-61
2022/11/29 09:21:39;;;;;;;7.53;4.53;;;;;;;7.05;100.00;97236.69;4966031;28;20189;-60
2022/11/29 09:24:05;;;;;;;9.35;5.32;;;;;;;6.97;100.00;97221.06;4969231;28;20058;-59
2022/11/29 09:26:35;;;;;;;17.38;10.02;;;;;;;7.07;100.00;97215.13;4981066;28;20142;-60
2022/11/29 09:29:04;;;;;;;12.32;8.60;;;;;;;7.42;100.00;97249.34;4986069;28;20050;-61
2022/11/29 09:31:32;;;;;;;13.80;8.82;;;;;;;7.47;100.00;97240.84;4984714;28;20066;-61
2022/11/29 09:33:59;;;;;;;18.60;12.10;;;;;;;7.51;100.00;97239.00;4985405;28;20058;-58
2022/11/29 09:36:25;;;;;;;14.27;9.15;;;;;;;7.52;100.00;97237.81;4985438;28;20145;-60
2022/11/29 09:38:55;;;;;;;11.10;7.25;;;;;;;7.51;100.00;97239.00;4984862;28;20504;-60
2022/11/29 09:41:40;;;;;;;12.95;8.02;;;;;;;7.50;100.00;97214.53;4984271;28;20046;-60
2022/11/29 09:44:23;;;;;;;14.57;9.85;;;;;;;7.44;100.00;97222.25;4982819;28;20054;-57
2022/11/29 09:46:59;;;;;;;14.48;10.20;;;;;;;7.34;100.00;97219.94;4984371;28;20089;-59
2022/11/29 09:49:52;;;;;;;19.17;10.80;;;;;;;7.27;100.00;97219.69;4983025;28;20054;-59
2022/11/29 09:52:44;;;;;;;28.23;11.73;;;;;;;6.97;100.00;97154.97;4983969;28;20058;-58
2022/11/29 09:55:32;;;;;;;29.15;13.15;;;;;;;7.28;100.00;97204.78;4969983;28;20155;-60
2022/11/29 09:58:02;;;;;;;25.00;14.00;;;;;;;7.26;100.00;97207.09;4972585;28;20062;-59
2022/11/29 10:00:36;;;;;;;37.03;20.60;;;;;;;7.33;100.00;97210.06;4985226;28;20054;-57
2022/11/29 10:03:18;;;;;;;114.63;55.85;;;;;;;7.28;100.00;97204.78;4980232;28;20086;-61
2022/11/29 10:05:49;;;;;;;30.75;17.92;;;;;;;7.10;100.00;97186.88;4980254;28;20050;-60
2022/11/29 10:08:40;;;;;;;39.88;27.23;;;;;;;7.07;100.00;97171.06;4979886;28;20430;-60
2022/11/29 10:11:29;;;;;;;27.17;22.13;;;;;;;7.26;100.00;97200.75;4978761;28;20136;-58
2022/11/29 10:14:04;;;;;;;84.65;46.33;;;;;;;7.21;100.00;97199.06;4985196;28;20058;-57
2022/11/29 10:16:55;;;;;;;13.98;10.70;;;;;;;7.14;100.00;97193.31;4983658;28;20073;-60
2022/11/29 10:19:39;;;;;;;13.18;9.43;;;;;;;7.02;100.00;97168.53;4972478;28;20053;-61
2022/11/29 10:22:34;;;;;;;9.60;7.22;;;;;;;6.96;100.00;97097.50;4984901;28;20053;-61
2022/11/29 10:25:02;;;;;;;11.05;8.45;;;;;;;6.96;100.00;97189.19;4979899;28;20070;-57
2022/11/29 10:27:29;;;;;;;7.43;5.47;;;;;;;7.01;100.00;97188.97;4965635;28;20054;-58
2022/11/29 10:29:59;;;;;;;7.15;5.93;;;;;;;6.71;100.00;97146.25;4984838;28;20054;-61
2022/11/29 10:32:30;;;;;;;6.85;4.65;;;;;;;6.94;100.00;97144.66;4984615;28;20077;-58
2022/11/29 10:34:59;;;;;;;6.32;3.28;;;;;;;7.09;100.00;97163.25;4983439;28;20061;-58
2022/11/29 10:37:31;;;;;;;5.07;3.72;;;;;;;6.88;100.00;97143.28;4984838;28;20128;-61
2022/11/29 10:40:08;;;;;;;5.57;4.45;;;;;;;7.22;100.00;97183.34;4983303;28;20760;-57
2022/11/29 10:42:51;;;;;;;3.20;2.60;;;;;;;7.14;100.00;97160.28;4984251;28;20167;-60
2022/11/29 10:45:36;;;;;;;6.30;4.37;;;;;;;7.41;100.00;97165.03;4984753;28;20393;-60
2022/11/29 10:48:13;;;;;;;7.85;5.63;;;;;;;7.48;100.00;97165.28;4984621;28;20061;-58
2022/11/29 10:50:42;;;;;;;9.95;5.40;;;;;;;7.50;100.00;97174.00;4984802;28;20054;-61
2022/11/29 10:53:16;;;;;;;7.55;5.07;;;;;;;7.40;100.00;97166.19;4983235;28;20559;-60
2022/11/29 10:55:50;;;;;;;6.57;3.97;;;;;;;7.36;100.00;97168.06;4984579;28;20501;-61
2022/11/29 10:58:24;;;;;;;5.55;4.28;;;;;;;6.90;100.00;97105.19;4984644;28;20054;-56
2022/11/29 11:00:59;;;;;;;13.25;7.93;;;;;;;7.25;100.00;97144.88;4984548;28;20074;-58
2022/11/29 11:03:34;;;;;;;14.00;9.30;;;;;;;7.39;100.00;97161.03;4984385;28;20502;-59
2022/11/29 11:06:08;;;;;;;11.77;6.35;;;;;;;7.23;100.00;97147.19;4986209;28;20136;-62
2022/11/29 11:08:36;;;;;;;14.60;6.70;;;;;;;7.40;100.00;97157.94;4986968;28;20290;-57
2022/11/29 11:11:06;;;;;;;11.90;5.78;;;;;;;7.36;100.00;97165.31;4987530;28;20051;-62
2022/11/29 11:13:35;;;;;;;9.98;5.63;;;;;;;7.40;100.00;97160.69;4988056;28;20116;-66
2022/11/29 11:16:24;;;;;;;11.82;5.47;;;;;;;7.41;100.00;97153.22;4988021;28;20418;-59
2022/11/29 11:18:51;;;;;;;9.00;6.03;;;;;;;7.50;100.00;97174.00;4987515;28;20058;-58
2022/11/29 11:21:20;;;;;;;6.65;4.20;;;;;;;7.08;100.00;97120.31;4987666;28;20121;-59
2022/11/29 11:24:00;;;;;;;6.97;3.55;;;;;;;7.30;100.00;97138.34;4988101;28;20116;-61
2022/11/29 11:26:41;;;;;;;9.40;6.53;;;;;;;7.26;100.00;97132.69;5002267;28;20059;-61
2022/11/29 11:29:34;;;;;;;6.95;4.30;;;;;;;6.54;100.00;97030.91;4985591;28;20137;-61
2022/11/29 11:32:00;;;;;;;7.68;4.30;;;;;;;7.04;100.00;97116.66;4985838;28;20525;-61
2022/11/29 11:34:27;;;;;;;7.60;4.28;;;;;;;7.39;100.00;97156.34;4987690;28;20042;-59
2022/11/29 11:37:12;;;;;;;9.90;6.38;;;;;;;7.50;100.00;97162.97;4987744;28;20116;-63
2022/11/29 11:39:42;;;;;;;7.95;4.15;;;;;;;7.39;100.00;97145.31;4987477;28;20080;-63
2022/11/29 11:45:09;;;;;;;10.70;5.70;;;;;;;7.54;100.00;97158.38;4986437;28;20058;-59
2022/11/29 11:48:01;;;;;;;10.27;5.15;;;;;;;7.57;100.00;97145.84;4977461;28;20077;-61
2022/11/29 11:50:31;;;;;;;22.58;8.90;;;;;;;7.36;100.00;97104.69;4987220;28;20149;-56
2022/11/29 11:53:03;;;;;;;26.95;11.63;;;;;;;7.55;100.00;97151.72;4985578;28;20607;-57
2022/11/29 11:55:35;;;;;;;13.45;7.22;;;;;;;7.61;100.00;97146.75;4986765;28;20105;-59
2022/11/29 11:58:11;;;;;;;23.45;11.23;;;;;;;7.36;100.00;97101.13;4994964;28;20464;-57
2022/11/29 12:00:53;;;;;;;22.10;10.90;;;;;;;7.68;100.00;97147.75;5001768;28;20633;-57
2022/11/29 12:04:07;;;;;;;19.80;10.40;;;;;;;7.68;100.00;97150.50;4984323;28;20544;-56
2022/11/29 12:06:39;;;;;;;13.73;7.47;;;;;;;7.54;100.00;97147.34;4986823;28;20050;-60
2022/11/29 12:09:47;;;;;;;17.87;9.33;;;;;;;7.57;100.00;97151.38;4984694;28;20054;-58
2022/11/29 12:12:16;;;;;;;15.80;7.40;;;;;;;7.42;100.00;97150.13;4990111;28;20054;-58
2022/11/29 12:15:03;;;;;;;9.98;5.07;;;;;;;7.39;100.00;97150.03;4986428;28;20051;-56
2022/11/29 12:17:42;;;;;;;15.98;7.50;;;;;;;7.41;100.00;97150.47;4984393;28;20437;-58
2022/11/29 12:20:24;;;;;;;11.55;5.40;;;;;;;7.41;100.00;97148.50;4987244;28;20485;-61